createdAt,value
2022-11-20T00:01:42.107Z,64.64
2022-11-20T00:04:29.919Z,66.28
2022-11-20T00:07:17.702Z,64.47
2022-11-20T00:10:05.943Z,62.76
2022-11-20T00:12:53.484Z,61.95
2022-11-20T00:15:40.903Z,60.76
2022-11-20T00:18:29.137Z,56.00
2022-11-20T00:21:22.008Z,54.84
2022-11-20T00:24:11.635Z,55.29
2022-11-20T00:26:59.592Z,61.11
2022-11-20T00:29:47.615Z,64.27
2022-11-20T00:32:35.610Z,63.56
2022-11-20T00:35:23.075Z,61.67
2022-11-20T00:38:10.837Z,59.00
2022-11-20T00:41:00.660Z,60.68
2022-11-20T00:43:48.740Z,62.72
2022-11-20T00:46:36.698Z,65.17
2022-11-20T00:49:24.605Z,64.83
2022-11-20T00:52:12.201Z,62.96
2022-11-20T00:55:00.052Z,59.09
2022-11-20T00:57:47.490Z,56.29
2022-11-20T01:00:35.568Z,57.49
2022-11-20T01:03:27.021Z,60.07
2022-11-20T01:06:18.747Z,61.38
2022-11-20T01:09:15.739Z,65.61
2022-11-20T01:12:03.852Z,67.31
2022-11-20T01:14:51.620Z,65.01
2022-11-20T01:17:39.251Z,62.00
2022-11-20T01:20:26.950Z,59.10
2022-11-20T01:23:14.785Z,56.09
2022-11-20T01:26:05.893Z,61.04
2022-11-20T01:28:54.679Z,63.92
2022-11-20T01:31:43.299Z,63.11
2022-11-20T01:34:31.117Z,61.54
2022-11-20T01:37:18.622Z,58.66
2022-11-20T01:40:07.497Z,59.79
2022-11-20T01:43:24.361Z,63.10
2022-11-20T01:46:20.111Z,65.70
2022-11-20T01:50:14.257Z,63.24
2022-11-20T01:53:11.328Z,61.61
2022-11-20T01:56:02.875Z,60.38
2022-11-20T01:58:57.306Z,56.61
2022-11-20T02:01:45.146Z,56.50
2022-11-20T02:04:33.193Z,58.81
2022-11-20T02:07:21.297Z,61.64
2022-11-20T02:10:09.157Z,66.28
2022-11-20T02:13:16.381Z,66.06
2022-11-20T02:16:05.020Z,63.00
2022-11-20T02:18:55.982Z,60.28
2022-11-20T02:22:09.165Z,56.92
2022-11-20T02:24:59.378Z,56.78
2022-11-20T02:27:47.750Z,59.93
2022-11-20T02:30:35.803Z,60.37
2022-11-20T02:33:23.485Z,65.38
2022-11-20T02:36:15.392Z,67.24
2022-11-20T02:39:05.150Z,65.83
2022-11-20T02:41:55.121Z,62.55
2022-11-20T02:44:42.801Z,59.91
2022-11-20T02:47:30.462Z,55.86
2022-11-20T02:50:18.532Z,56.89
2022-11-20T02:53:05.918Z,59.91
2022-11-20T02:55:53.665Z,63.64
2022-11-20T02:58:41.541Z,66.00
2022-11-20T03:01:29.538Z,64.03
2022-11-20T03:04:17.187Z,61.93
2022-11-20T03:07:07.519Z,58.68
2022-11-20T03:09:55.638Z,56.90
2022-11-20T03:12:43.516Z,58.82
2022-11-20T03:15:31.377Z,61.02
2022-11-20T03:18:18.874Z,66.49
2022-11-20T03:21:07.751Z,66.98
2022-11-20T03:23:55.942Z,64.11
2022-11-20T03:26:43.511Z,60.82
2022-11-20T03:29:31.363Z,60.24
2022-11-20T03:32:19.113Z,57.50
2022-11-20T03:35:07.519Z,56.86
2022-11-20T03:37:54.997Z,57.76
2022-11-20T03:40:43.046Z,59.50
2022-11-20T03:43:31.283Z,61.54
2022-11-20T03:46:19.020Z,66.66
2022-11-20T03:49:07.081Z,68.28
2022-11-20T03:51:54.647Z,66.75
2022-11-20T03:54:42.329Z,64.71
2022-11-20T03:57:29.598Z,61.95
2022-11-20T04:00:17.498Z,57.26
2022-11-20T04:03:05.286Z,55.58
2022-11-20T04:05:53.107Z,58.70
2022-11-20T04:08:42.571Z,62.18
2022-11-20T04:11:33.942Z,64.48
2022-11-20T04:14:21.655Z,63.86
2022-11-20T04:17:09.472Z,62.19
2022-11-20T04:19:57.467Z,60.55
2022-11-20T04:22:45.280Z,56.73
2022-11-20T04:25:34.052Z,56.21
2022-11-20T04:28:21.920Z,58.38
2022-11-20T04:31:16.584Z,61.01
2022-11-20T04:34:07.480Z,64.25
2022-11-20T04:36:54.954Z,66.45
2022-11-20T04:39:42.592Z,64.30
2022-11-20T04:42:30.097Z,61.48
2022-11-20T04:45:18.036Z,60.02
2022-11-20T04:48:06.218Z,56.82
2022-11-20T04:50:54.699Z,55.57
2022-11-20T04:53:43.180Z,57.29
2022-11-20T04:56:30.946Z,62.38
2022-11-20T04:59:19.215Z,65.22
2022-11-20T05:02:07.340Z,64.44
2022-11-20T05:04:54.974Z,61.50
2022-11-20T05:07:42.911Z,60.05
2022-11-20T05:10:30.636Z,57.08
2022-11-20T05:13:18.380Z,58.46
2022-11-20T05:16:10.891Z,61.11
2022-11-20T05:18:58.346Z,64.19
2022-11-20T05:21:45.877Z,65.24
2022-11-20T05:24:33.480Z,61.78
2022-11-20T05:27:21.510Z,58.43
2022-11-20T05:30:10.627Z,60.71
2022-11-20T05:32:58.703Z,63.65
2022-11-20T05:35:46.366Z,65.63
2022-11-20T05:38:34.668Z,64.16
2022-11-20T05:41:22.506Z,61.56
2022-11-20T05:44:13.452Z,58.31
2022-11-20T05:47:01.258Z,58.42
2022-11-20T05:49:48.950Z,63.78
2022-11-20T05:52:37.502Z,64.05
2022-11-20T05:55:25.078Z,62.63
2022-11-20T05:58:12.862Z,60.72
2022-11-20T06:01:12.764Z,57.99
2022-11-20T06:04:00.412Z,58.85
2022-11-20T06:06:50.563Z,63.70
2022-11-20T06:09:38.755Z,64.11
2022-11-20T06:12:26.179Z,62.52
2022-11-20T06:15:14.226Z,61.05
2022-11-20T06:18:02.096Z,57.88
2022-11-20T06:20:49.819Z,57.34
2022-11-20T06:23:38.533Z,61.43
2022-11-20T06:26:28.910Z,64.68
2022-11-20T06:29:16.938Z,64.55
2022-11-20T06:32:04.973Z,64.31
2022-11-20T06:34:52.679Z,61.45
2022-11-20T06:37:40.202Z,58.23
2022-11-20T06:40:27.801Z,58.17
2022-11-20T06:43:15.535Z,59.16
2022-11-20T06:46:03.792Z,60.71
2022-11-20T06:48:52.206Z,64.22
2022-11-20T06:51:39.765Z,67.37
2022-11-20T06:54:27.206Z,66.56
2022-11-20T06:57:15.032Z,63.52
2022-11-20T07:00:02.462Z,60.32
2022-11-20T07:02:50.945Z,57.29
2022-11-20T07:05:39.607Z,55.97
2022-11-20T07:08:27.621Z,57.23
2022-11-20T07:11:15.326Z,58.84
2022-11-20T07:14:03.112Z,60.81
2022-11-20T07:16:50.968Z,65.58
2022-11-20T07:19:38.634Z,68.35
2022-11-20T07:22:27.809Z,66.22
2022-11-20T07:25:15.718Z,63.97
2022-11-20T07:28:04.787Z,60.07
2022-11-20T07:30:54.866Z,56.26
2022-11-20T07:33:43.100Z,55.41
2022-11-20T07:36:30.824Z,56.63
2022-11-20T07:39:18.710Z,59.34
2022-11-20T07:42:10.655Z,60.07
2022-11-20T07:44:58.907Z,62.56
2022-11-20T07:47:46.617Z,67.25
2022-11-20T07:50:34.325Z,67.92
2022-11-20T07:53:22.835Z,65.56
2022-11-20T07:56:10.737Z,62.82
2022-11-20T07:58:58.566Z,59.85
2022-11-20T08:01:46.116Z,55.56
2022-11-20T08:04:34.265Z,54.28
2022-11-20T08:07:22.004Z,57.51
2022-11-20T08:10:12.812Z,56.94
2022-11-20T08:13:18.976Z,59.48
2022-11-20T08:16:06.874Z,62.02
2022-11-20T08:18:54.731Z,65.61
2022-11-20T08:21:42.792Z,63.38
2022-11-20T08:24:30.505Z,59.86
2022-11-20T08:27:18.246Z,56.82
2022-11-20T08:30:07.260Z,56.78
2022-11-20T08:32:55.936Z,56.78
2022-11-20T08:35:43.973Z,57.68
2022-11-20T08:38:33.110Z,61.74
2022-11-20T08:41:32.745Z,65.54
2022-11-20T08:44:20.343Z,64.12
2022-11-20T08:47:08.195Z,59.17
2022-11-20T08:49:55.749Z,56.76
2022-11-20T08:52:43.676Z,57.98
2022-11-20T08:55:31.594Z,59.50
2022-11-20T08:58:19.066Z,60.95
2022-11-20T09:01:07.012Z,63.55
2022-11-20T09:03:58.114Z,63.10
2022-11-20T09:06:46.054Z,59.08
2022-11-20T09:09:34.034Z,55.97
2022-11-20T09:12:21.464Z,58.04
2022-11-20T09:15:09.572Z,59.32
2022-11-20T09:18:03.753Z,62.96
2022-11-20T09:20:52.474Z,67.16
2022-11-20T09:23:41.504Z,66.41
2022-11-20T09:26:29.587Z,61.90
2022-11-20T09:29:21.211Z,56.92
2022-11-20T09:32:09.104Z,55.20
2022-11-20T09:34:56.805Z,57.94
2022-11-20T09:37:45.603Z,57.89
2022-11-20T09:40:36.140Z,59.85
2022-11-20T09:43:45.956Z,64.54
2022-11-20T09:46:45.010Z,64.61
2022-11-20T09:50:16.104Z,60.24
2022-11-20T09:53:37.948Z,57.40
2022-11-20T09:56:27.050Z,55.40
2022-11-20T09:59:41.655Z,56.84
2022-11-20T10:02:42.213Z,61.65
2022-11-20T10:05:46.260Z,64.24
2022-11-20T10:08:46.126Z,62.30
2022-11-20T10:12:00.263Z,58.44
2022-11-20T10:15:25.423Z,56.98
2022-11-20T10:18:38.952Z,58.80
2022-11-20T10:21:48.619Z,60.97
2022-11-20T10:24:45.243Z,65.49
2022-11-20T10:27:41.971Z,63.56
2022-11-20T10:30:31.330Z,61.13
2022-11-20T10:33:24.597Z,57.60
2022-11-20T10:36:31.514Z,56.98
2022-11-20T10:39:22.249Z,59.48
2022-11-20T10:42:17.812Z,60.92
2022-11-20T10:45:43.297Z,64.77
2022-11-20T10:48:33.613Z,62.98
2022-11-20T10:51:45.796Z,60.15
2022-11-20T10:55:03.485Z,55.86
2022-11-20T10:58:26.553Z,55.64
2022-11-20T11:01:25.595Z,59.29
2022-11-20T11:04:44.251Z,58.94
2022-11-20T11:07:39.865Z,60.35
2022-11-20T11:10:59.007Z,63.91
2022-11-20T11:13:46.921Z,65.75
2022-11-20T11:16:34.815Z,59.42
2022-11-20T11:19:23.293Z,54.79
2022-11-20T11:22:19.151Z,54.80
2022-11-20T11:25:39.857Z,56.80
2022-11-20T11:28:29.545Z,58.83
2022-11-20T11:31:29.732Z,58.44
2022-11-20T11:34:18.640Z,59.77
2022-11-20T11:37:16.192Z,60.57
2022-11-20T11:43:43.777Z,64.96
2022-11-20T11:46:36.854Z,58.76
2022-11-20T11:49:24.917Z,54.94
2022-11-20T11:52:25.433Z,54.85
2022-11-20T11:55:41.760Z,56.99
2022-11-20T11:58:53.013Z,60.94
2022-11-20T12:01:50.132Z,60.34
2022-11-20T12:04:44.728Z,61.16
2022-11-20T12:07:51.849Z,62.18
2022-11-20T12:11:07.553Z,65.30
2022-11-20T12:14:25.149Z,63.61
2022-11-20T12:17:15.233Z,60.20
2022-11-20T12:20:03.694Z,55.09
2022-11-20T12:23:15.493Z,53.88
2022-11-20T12:26:16.688Z,55.82
2022-11-20T12:29:23.589Z,57.85
2022-11-20T12:32:19.676Z,58.75
2022-11-20T12:35:50.145Z,62.87
2022-11-20T12:38:53.608Z,62.21
2022-11-20T12:42:43.003Z,56.76
2022-11-20T12:46:00.082Z,54.60
2022-11-20T12:49:44.967Z,58.42
2022-11-20T12:53:01.009Z,61.02
2022-11-20T12:55:57.724Z,64.37
2022-11-20T12:59:14.699Z,64.42
2022-11-20T13:02:50.679Z,57.26
2022-11-20T13:06:05.808Z,58.73
2022-11-20T13:08:59.539Z,61.70
2022-11-20T13:12:09.207Z,64.99
2022-11-20T13:15:12.951Z,66.21
2022-11-20T13:18:07.276Z,62.48
2022-11-20T13:20:56.293Z,59.51
2022-11-20T13:23:44.082Z,55.07
2022-11-20T13:26:31.771Z,55.17
2022-11-20T13:29:20.712Z,58.17
2022-11-20T13:32:16.420Z,61.59
2022-11-20T13:35:06.611Z,65.64
2022-11-20T13:38:09.346Z,64.80
2022-11-20T13:41:21.954Z,61.93
2022-11-20T13:44:36.356Z,55.68
2022-11-20T13:47:28.066Z,57.56
2022-11-20T13:50:16.108Z,58.72
2022-11-20T13:53:07.788Z,62.38
2022-11-20T13:56:12.005Z,68.20
2022-11-20T13:59:51.374Z,65.46
2022-11-20T14:02:40.036Z,61.51
2022-11-20T14:05:29.444Z,58.11
2022-11-20T14:08:40.788Z,56.43
2022-11-20T14:11:32.813Z,59.33
2022-11-20T14:14:27.469Z,62.37
2022-11-20T14:17:26.286Z,65.79
2022-11-20T14:20:16.492Z,63.48
2022-11-20T14:23:06.200Z,61.11
2022-11-20T14:25:54.966Z,57.09
2022-11-20T14:28:43.067Z,57.47
2022-11-20T14:31:31.633Z,60.10
2022-11-20T14:34:30.186Z,62.42
2022-11-20T14:37:26.942Z,67.56
2022-11-20T14:40:38.807Z,65.16
2022-11-20T14:43:29.940Z,61.42
2022-11-20T14:46:18.902Z,59.44
2022-11-20T14:49:06.958Z,57.36
2022-11-20T14:52:03.884Z,58.90
2022-11-20T14:54:57.915Z,62.26
2022-11-20T14:57:56.543Z,67.62
2022-11-20T15:00:56.064Z,65.42
2022-11-20T15:03:43.759Z,62.68
2022-11-20T15:06:32.446Z,60.27
2022-11-20T15:09:20.634Z,57.26
2022-11-20T15:12:19.094Z,58.41
2022-11-20T15:15:11.852Z,63.59
2022-11-20T15:17:59.816Z,66.06
2022-11-20T15:20:47.530Z,65.19
2022-11-20T15:23:35.707Z,62.54
2022-11-20T15:26:29.049Z,59.79
2022-11-20T15:29:22.050Z,56.29
2022-11-20T15:32:13.584Z,58.70
2022-11-20T15:35:01.701Z,63.01
2022-11-20T15:37:49.548Z,64.78
2022-11-20T15:40:37.828Z,62.51
2022-11-20T15:43:26.006Z,60.70
2022-11-20T15:46:18.320Z,57.07
2022-11-20T15:49:07.758Z,57.99
2022-11-20T15:51:56.029Z,61.34
2022-11-20T15:54:43.932Z,66.86
2022-11-20T15:57:34.763Z,65.22
2022-11-20T16:00:23.864Z,61.57
2022-11-20T16:03:14.131Z,58.44
2022-11-20T16:06:01.998Z,58.83
2022-11-20T16:08:49.920Z,63.77
2022-11-20T16:11:38.477Z,66.64
2022-11-20T16:14:46.148Z,64.71
2022-11-20T16:17:43.511Z,60.65
2022-11-20T16:20:31.179Z,58.01
2022-11-20T16:23:19.285Z,57.49
2022-11-20T16:26:18.034Z,60.95
2022-11-20T16:29:08.139Z,65.58
2022-11-20T16:31:57.893Z,66.36
2022-11-20T16:34:47.443Z,63.84
2022-11-20T16:37:35.697Z,61.11
2022-11-20T16:40:24.562Z,57.79
2022-11-20T16:43:14.936Z,57.70
2022-11-20T16:46:09.671Z,61.38
2022-11-20T16:49:03.009Z,65.58
2022-11-20T16:51:51.971Z,66.58
2022-11-20T16:54:39.702Z,63.55
2022-11-20T16:57:33.047Z,60.80
2022-11-20T17:00:20.827Z,58.93
2022-11-20T17:03:08.898Z,57.01
2022-11-20T17:05:56.534Z,60.22
2022-11-20T17:08:45.796Z,64.14
2022-11-20T17:11:33.964Z,65.72
2022-11-20T17:14:21.892Z,63.63
2022-11-20T17:17:10.035Z,61.06
2022-11-20T17:19:57.646Z,57.51
2022-11-20T17:22:45.844Z,59.13
2022-11-20T17:25:34.603Z,62.07
2022-11-20T17:28:24.531Z,65.88
2022-11-20T17:31:16.343Z,63.97
2022-11-20T17:34:06.341Z,62.74
2022-11-20T17:36:55.555Z,60.28
2022-11-20T17:39:44.838Z,58.94
2022-11-20T17:42:36.888Z,56.21
2022-11-20T17:45:24.692Z,60.18
2022-11-20T17:48:13.074Z,63.28
2022-11-20T17:51:06.523Z,65.34
2022-11-20T17:54:00.820Z,64.15
2022-11-20T17:57:06.796Z,61.95
2022-11-20T17:59:54.706Z,59.95
2022-11-20T18:02:42.491Z,57.84
2022-11-20T18:05:33.741Z,57.25
2022-11-20T18:08:21.993Z,59.18
2022-11-20T18:11:15.473Z,59.82
2022-11-20T18:14:26.638Z,66.99
2022-11-20T18:17:15.991Z,69.04
2022-11-20T18:20:27.898Z,66.46
2022-11-20T18:23:13.183Z,63.92
2022-11-20T18:26:01.013Z,61.52
2022-11-20T18:28:48.628Z,60.05
2022-11-20T18:31:36.226Z,58.18
2022-11-20T18:34:24.334Z,56.92
2022-11-20T18:37:15.366Z,59.46
2022-11-20T18:40:04.434Z,63.60
2022-11-20T18:43:10.913Z,65.77
2022-11-20T18:46:05.142Z,64.36
2022-11-20T18:48:53.239Z,62.49
2022-11-20T18:51:44.359Z,60.04
2022-11-20T18:54:35.673Z,58.11
2022-11-20T18:57:27.200Z,58.76
2022-11-20T19:00:15.064Z,59.46
2022-11-20T19:03:08.272Z,62.48
2022-11-20T19:05:58.845Z,67.08
2022-11-20T19:08:47.221Z,65.52
2022-11-20T19:11:36.284Z,63.67
2022-11-20T19:14:23.957Z,62.36
2022-11-20T19:17:13.672Z,58.57
2022-11-20T19:20:01.362Z,58.29
2022-11-20T19:22:53.894Z,59.58
2022-11-20T19:25:43.795Z,64.05
2022-11-20T19:28:33.117Z,65.19
2022-11-20T19:31:27.125Z,66.69
2022-11-20T19:34:15.752Z,63.89
2022-11-20T19:37:03.637Z,59.16
2022-11-20T19:39:51.585Z,56.62
2022-11-20T19:42:39.756Z,58.83
2022-11-20T19:45:27.290Z,62.89
2022-11-20T19:48:14.793Z,64.72
2022-11-20T19:51:12.087Z,63.39
2022-11-20T19:54:01.246Z,63.02
2022-11-20T19:56:49.657Z,60.83
2022-11-20T19:59:42.547Z,59.98
2022-11-20T20:02:32.185Z,57.18
2022-11-20T20:05:19.909Z,57.91
2022-11-20T20:08:07.974Z,61.18
2022-11-20T20:10:59.374Z,64.08
2022-11-20T20:13:48.187Z,65.17
2022-11-20T20:16:36.285Z,63.22
2022-11-20T20:19:24.318Z,61.10
2022-11-20T20:22:12.138Z,60.41
2022-11-20T20:24:59.866Z,58.32
2022-11-20T20:27:47.716Z,59.52
2022-11-20T20:30:35.972Z,63.42
2022-11-20T20:33:24.380Z,65.35
2022-11-20T20:36:14.877Z,64.29
2022-11-20T20:39:05.124Z,61.59
2022-11-20T20:41:52.860Z,61.68
2022-11-20T20:44:59.572Z,58.57
2022-11-20T20:47:47.622Z,59.79
2022-11-20T20:50:35.776Z,61.49
2022-11-20T20:53:24.717Z,65.76
2022-11-20T20:56:12.794Z,66.57
2022-11-20T20:59:00.576Z,64.97
2022-11-20T21:01:48.581Z,63.51
2022-11-20T21:04:36.509Z,61.47
2022-11-20T21:07:24.255Z,58.63
2022-11-20T21:10:12.536Z,59.27
2022-11-20T21:13:00.361Z,62.62
2022-11-20T21:15:51.506Z,64.72
2022-11-20T21:18:39.153Z,64.25
2022-11-20T21:22:01.529Z,62.93
2022-11-20T21:24:49.210Z,59.26
2022-11-20T21:27:37.037Z,58.79
2022-11-20T21:30:25.231Z,62.40
2022-11-20T21:33:13.389Z,64.57
2022-11-20T21:36:03.145Z,64.52
2022-11-20T21:38:54.197Z,63.18
2022-11-20T21:41:42.627Z,61.26
2022-11-20T21:44:41.347Z,58.47
2022-11-20T21:47:29.916Z,59.34
2022-11-20T21:50:22.333Z,62.58
2022-11-20T21:53:10.293Z,64.85
2022-11-20T21:55:59.721Z,63.96
2022-11-20T21:58:48.142Z,61.46
2022-11-20T22:01:35.960Z,60.29
2022-11-20T22:04:24.768Z,60.83
2022-11-20T22:07:12.552Z,58.64
2022-11-20T22:10:00.230Z,58.42
2022-11-20T22:12:48.153Z,61.48
2022-11-20T22:15:59.327Z,64.73
2022-11-20T22:18:45.476Z,64.28
2022-11-20T22:21:34.198Z,61.93
2022-11-20T22:24:25.242Z,61.80
2022-11-20T22:27:13.486Z,60.63
2022-11-20T22:30:01.303Z,58.24
2022-11-20T22:32:49.036Z,59.26
2022-11-20T22:35:37.243Z,63.08
2022-11-20T22:38:29.365Z,64.88
2022-11-20T22:41:19.685Z,63.20
2022-11-20T22:44:08.837Z,61.16
2022-11-20T22:46:56.707Z,59.80
2022-11-20T22:49:44.506Z,59.22
2022-11-20T22:52:39.945Z,61.24
2022-11-20T22:55:27.924Z,64.88
2022-11-20T22:58:15.305Z,65.78
2022-11-20T23:01:32.253Z,62.75
2022-11-20T23:04:20.038Z,62.00
2022-11-20T23:07:08.406Z,61.60
2022-11-20T23:09:56.006Z,58.40
2022-11-20T23:12:43.494Z,57.00
2022-11-20T23:15:33.415Z,60.13
2022-11-20T23:18:21.319Z,62.96
2022-11-20T23:21:15.430Z,66.16
2022-11-20T23:24:04.190Z,65.69
2022-11-20T23:26:51.695Z,63.40
2022-11-20T23:29:39.225Z,61.54
2022-11-20T23:32:27.022Z,59.97
2022-11-20T23:35:15.224Z,57.64
2022-11-20T23:38:03.245Z,58.52
2022-11-20T23:40:52.415Z,61.15
2022-11-20T23:43:41.251Z,64.25
2022-11-20T23:46:29.475Z,65.03
2022-11-20T23:49:18.833Z,64.44
2022-11-20T23:52:07.642Z,61.70
2022-11-20T23:54:55.721Z,61.20
2022-11-20T23:57:45.618Z,59.68
